Time;durP1;ratioP1;P1;durP2;ratioP2;P2;SDS_P1;SDS_P2;PMS_P1;PMS_P2;Temp;Humidity;BMP_temperature;BMP_pressure;BME280_temperature;BME280_humidity;BME280_pressure;Samples;Min_cycle;Max_cycle;Signal;HPM_P1;HPM_P2
2023/01/11 00:00:32;;;;;;;13.02;11.13;;;;;;;17.72;39.09;101773.94;20993466;28;20032;-61
2023/01/11 00:10:34;;;;;;;12.35;10.25;;;;;;;17.66;38.82;101769.38;20992388;28;20040;-62
2023/01/11 00:20:38;;;;;;;10.88;9.70;;;;;;;17.66;38.78;101772.16;20992287;28;20403;-62
2023/01/11 00:30:42;;;;;;;11.95;10.68;;;;;;;17.68;38.74;101781.88;20992504;28;20033;-61
2023/01/11 00:40:48;;;;;;;12.48;10.77;;;;;;;17.68;38.82;101781.88;21006767;28;20613;-61
2023/01/11 00:50:54;;;;;;;10.90;9.75;;;;;;;17.59;39.21;101761.16;21005923;28;20036;-61
2023/01/11 01:00:55;;;;;;;10.50;9.27;;;;;;;17.65;39.22;101771.31;21005011;28;20105;-61
2023/01/11 01:10:57;;;;;;;11.30;9.90;;;;;;;17.57;38.78;101774.41;21004961;28;20491;-61
2023/01/11 01:20:58;;;;;;;11.05;9.35;;;;;;;17.56;38.95;101769.97;21004626;28;20032;-60
2023/01/11 01:31:02;;;;;;;11.73;9.57;;;;;;;17.55;38.95;101782.13;21002783;28;20383;-61
2023/01/11 01:41:06;;;;;;;11.48;10.10;;;;;;;17.62;39.21;101804.97;21002566;28;20098;-59
2023/01/11 01:51:15;;;;;;;11.70;10.48;;;;;;;17.49;39.17;101794.13;21003471;28;20568;-61
2023/01/11 02:11:42;;;;;;;12.02;9.77;;;;;;;17.61;39.00;101830.97;21033668;28;20036;-61
2023/01/11 02:22:01;;;;;;;11.32;10.00;;;;;;;17.60;38.84;101848.69;21027488;28;20475;-61
2023/01/11 02:32:36;;;;;;;11.33;10.10;;;;;;;17.53;39.25;101864.53;21081289;28;20070;-61
2023/01/11 02:53:44;;;;;;;12.63;10.63;;;;;;;17.54;39.34;101864.28;21080277;28;20048;-61
2023/01/11 03:03:46;;;;;;;11.15;9.95;;;;;;;17.50;38.82;101851.16;21004284;28;20040;-61
2023/01/11 03:14:16;;;;;;;10.63;9.30;;;;;;;17.50;39.31;101867.75;20994631;28;20044;-61
2023/01/11 03:24:26;;;;;;;12.50;9.97;;;;;;;17.54;38.97;101871.75;21065927;28;20048;-63
2023/01/11 03:34:51;;;;;;;12.57;10.45;;;;;;;17.48;39.17;101878.22;21077234;28;20044;-62
2023/01/11 03:44:55;;;;;;;12.27;9.82;;;;;;;17.47;39.01;101879.31;21074546;28;20040;-61
2023/01/11 03:54:59;;;;;;;12.10;9.82;;;;;;;17.51;39.29;101902.69;21074912;28;20097;-62
2023/01/11 04:05:02;;;;;;;12.02;10.30;;;;;;;17.50;39.19;101887.13;21076117;28;20613;-62
2023/01/11 04:15:04;;;;;;;13.13;11.07;;;;;;;17.46;39.14;101886.78;21092896;28;20101;-61
2023/01/11 04:25:07;;;;;;;10.85;9.73;;;;;;;17.55;39.02;101901.13;21092377;28;20222;-62
2023/01/11 04:35:09;;;;;;;12.50;9.93;;;;;;;17.64;38.94;101896.94;21092052;28;20101;-62
2023/01/11 04:45:10;;;;;;;10.48;9.38;;;;;;;17.70;38.54;101904.31;21091070;28;20040;-62
2023/01/11 04:55:11;;;;;;;11.85;10.07;;;;;;;17.73;38.52;101895.56;21090421;28;20387;-62
2023/01/11 05:05:13;;;;;;;10.55;9.32;;;;;;;17.61;38.56;101875.28;21089393;28;20040;-62
2023/01/11 05:15:14;;;;;;;10.32;9.23;;;;;;;17.82;38.77;101881.34;21088809;28;20040;-61
2023/01/11 05:25:15;;;;;;;10.30;9.20;;;;;;;17.86;38.96;101872.34;21087778;28;20024;-62
2023/01/11 05:35:17;;;;;;;10.77;9.32;;;;;;;17.93;38.55;101867.56;21087360;28;20039;-61
2023/01/11 05:45:34;;;;;;;11.88;9.35;;;;;;;18.02;38.67;101887.44;21085882;28;20040;-61
2023/01/11 05:55:35;;;;;;;11.45;10.18;;;;;;;17.85;38.57;101883.66;21085463;28;20040;-61
2023/01/11 06:05:37;;;;;;;11.73;9.88;;;;;;;17.91;38.52;101910.41;21084824;28;20372;-62
2023/01/11 06:15:40;;;;;;;11.73;10.32;;;;;;;18.11;38.42;101937.78;21083552;28;20415;-61
2023/01/11 06:25:42;;;;;;;11.85;10.25;;;;;;;18.18;38.72;101957.91;21082867;28;20062;-61
2023/01/11 06:35:43;;;;;;;13.00;10.15;;;;;;;18.21;38.39;101974.91;21081676;28;20043;-60
2023/01/11 06:45:45;;;;;;;12.35;10.80;;;;;;;18.23;38.46;101969.94;21081270;28;20040;-62
2023/01/11 06:55:56;;;;;;;12.70;10.95;;;;;;;18.17;38.56;101961.75;21080428;28;20105;-61
2023/01/11 07:05:57;;;;;;;11.88;10.60;;;;;;;18.27;38.25;101990.56;21080222;28;20125;-60
2023/01/11 07:15:59;;;;;;;13.10;11.45;;;;;;;18.28;38.20;101988.66;21078771;28;20036;-62
2023/01/11 07:26:00;;;;;;;13.38;11.43;;;;;;;18.27;38.15;102009.97;21078496;28;20020;-60
2023/01/11 07:36:04;;;;;;;15.57;12.40;;;;;;;18.27;38.54;102031.28;21077341;28;20125;-60
2023/01/11 07:46:08;;;;;;;14.07;12.38;;;;;;;18.27;38.41;102028.50;21076803;28;20040;-61
2023/01/11 07:56:09;;;;;;;14.82;11.63;;;;;;;18.26;38.40;102047.06;21076645;28;20044;-62
2023/01/11 08:06:10;;;;;;;15.48;12.77;;;;;;;18.23;38.12;102044.75;21076439;28;20036;-60
2023/01/11 08:16:12;;;;;;;14.32;12.07;;;;;;;18.28;38.00;102046.84;21075789;28;20048;-62
2023/01/11 08:26:16;;;;;;;15.10;12.02;;;;;;;18.25;38.29;102059.25;21075834;28;20608;-62
2023/01/11 08:36:18;;;;;;;15.02;12.65;;;;;;;18.25;38.34;102081.41;21075217;28;20048;-61
2023/01/11 08:46:21;;;;;;;14.20;12.10;;;;;;;18.29;38.35;102087.31;21074756;28;20066;-62
2023/01/11 08:56:23;;;;;;;14.75;11.70;;;;;;;18.27;38.33;102079.22;21082418;28;20081;-61
2023/01/11 09:06:24;;;;;;;17.23;13.18;;;;;;;18.16;38.18;102080.03;21089412;28;20040;-60
2023/01/11 09:16:25;;;;;;;14.63;12.23;;;;;;;18.23;38.29;102088.25;21088588;28;20032;-61
2023/01/11 09:26:28;;;;;;;15.77;12.60;;;;;;;18.25;38.48;102092.50;21087902;28;20032;-61
2023/01/11 09:36:31;;;;;;;14.68;12.10;;;;;;;18.16;38.18;102044.03;21087431;28;20129;-62
2023/01/11 09:46:34;;;;;;;14.18;12.10;;;;;;;18.24;38.21;102042.84;21086166;28;20403;-60
2023/01/11 09:56:52;;;;;;;14.75;11.80;;;;;;;17.95;38.35;101976.16;21085575;28;20052;-60
2023/01/11 10:07:26;;;;;;;15.60;12.40;;;;;;;18.18;38.30;102010.53;21083776;28;20036;-61
2023/01/11 10:17:56;;;;;;;14.55;11.82;;;;;;;18.16;38.19;101994.16;21083309;28;20044;-61
2023/01/11 10:28:03;;;;;;;13.98;11.32;;;;;;;18.04;38.15;101965.56;21082715;28;20560;-61
2023/01/11 10:38:41;;;;;;;13.65;11.52;;;;;;;18.14;38.39;101996.31;21081937;28;20070;-60
2023/01/11 10:48:47;;;;;;;14.00;10.98;;;;;;;18.14;38.40;102031.47;21080945;28;20392;-61
2023/01/11 10:59:20;;;;;;;12.98;11.15;;;;;;;18.06;38.31;102063.16;21078922;28;20043;-61
2023/01/11 11:09:31;;;;;;;13.82;11.25;;;;;;;18.07;38.37;102095.31;21077778;28;20044;-61
2023/01/11 11:19:35;;;;;;;12.23;10.32;;;;;;;17.90;38.25;102088.72;21078841;28;20031;-60
2023/01/11 11:29:48;;;;;;;13.18;10.90;;;;;;;17.97;38.38;102134.63;21078276;28;20137;-60
2023/01/11 11:39:54;;;;;;;13.65;11.13;;;;;;;17.83;38.27;102121.19;21077378;28;20391;-61
2023/01/11 11:50:18;;;;;;;12.57;10.52;;;;;;;17.93;38.61;102180.47;21076299;28;20032;-60
2023/01/11 12:00:25;;;;;;;12.80;10.57;;;;;;;17.95;38.17;102186.63;21076044;28;20039;-60
2023/01/11 12:10:31;;;;;;;12.10;10.05;;;;;;;17.93;38.65;102187.94;21076322;28;20112;-61
2023/01/11 12:20:39;;;;;;;14.30;11.18;;;;;;;17.81;38.25;102167.63;21075527;28;20047;-60
2023/01/11 12:30:51;;;;;;;12.75;10.35;;;;;;;17.86;38.53;102165.00;21083445;28;20467;-61
2023/01/11 12:52:23;;;;;;;11.73;10.05;;;;;;;17.72;38.58;102165.13;21093933;28;20952;-61
2023/01/11 13:02:55;;;;;;;12.27;10.27;;;;;;;17.75;38.67;102202.63;21089751;28;20048;-61
2023/01/11 13:13:11;;;;;;;10.77;9.15;;;;;;;17.73;38.51;102215.78;21089041;28;20097;-60
2023/01/11 13:23:22;;;;;;;11.70;9.77;;;;;;;17.72;38.53;102231.56;21088428;28;20020;-61
2023/01/11 13:33:31;;;;;;;12.48;9.65;;;;;;;17.57;38.46;102213.63;21087469;28;20453;-59
2023/01/11 13:43:32;;;;;;;;;;;;;;;17.66;38.49;102260.16;21085495;28;20036;-60
2023/01/11 13:53:42;;;;;;;10.13;8.10;;;;;;;17.67;38.46;102239.72;21085421;28;19916;-61
2023/01/11 14:03:59;;;;;;;9.88;8.60;;;;;;;17.56;38.61;102243.25;21084925;28;20040;-62
2023/01/11 14:14:31;;;;;;;10.00;8.57;;;;;;;17.54;39.09;102262.81;21084122;28;20040;-62
2023/01/11 14:24:37;;;;;;;9.40;8.30;;;;;;;17.58;38.62;102243.84;21083676;28;20395;-61
2023/01/11 14:35:10;;;;;;;11.60;8.68;;;;;;;17.55;38.68;102258.16;21082889;28;20403;-62
2023/01/11 14:45:23;;;;;;;11.13;8.10;;;;;;;17.55;38.98;102269.22;21081836;28;20189;-62
2023/01/11 14:55:28;;;;;;;10.20;8.38;;;;;;;17.56;39.08;102289.44;21080353;28;20441;-62
2023/01/11 15:05:32;;;;;;;8.93;7.93;;;;;;;17.54;39.03;102307.09;21080868;28;20463;-62
2023/01/11 15:26:05;;;;;;;8.48;7.20;;;;;;;17.53;39.05;102322.03;21079914;28;20024;-62
2023/01/11 15:36:06;;;;;;;10.23;7.93;;;;;;;17.56;38.88;102342.03;21077736;28;20040;-62
2023/01/11 15:47:00;;;;;;;9.18;8.02;;;;;;;17.52;39.14;102319.50;21077786;28;20044;-62
2023/01/11 15:57:32;;;;;;;8.88;7.32;;;;;;;17.49;38.90;102319.94;21076635;28;20048;-60
2023/01/11 16:08:04;;;;;;;9.10;7.22;;;;;;;17.51;38.75;102296.50;21076836;28;20037;-62
2023/01/11 16:18:15;;;;;;;8.05;7.00;;;;;;;17.48;39.16;102283.09;21076353;28;20540;-62
2023/01/11 16:28:17;;;;;;;8.65;7.60;;;;;;;17.50;38.94;102278.22;21075846;28;20036;-62
2023/01/11 16:38:22;;;;;;;8.15;6.82;;;;;;;17.53;38.84;102261.13;21073040;28;20040;-62
2023/01/11 16:48:24;;;;;;;8.27;6.78;;;;;;;17.54;38.68;102245.38;21074409;28;20545;-62
2023/01/11 16:58:32;;;;;;;7.43;6.03;;;;;;;17.27;38.92;102201.34;21074405;28;20044;-62
2023/01/11 17:08:38;;;;;;;8.02;6.28;;;;;;;17.54;38.75;102239.84;21074060;28;20101;-62
2023/01/11 17:18:41;;;;;;;8.40;6.65;;;;;;;17.51;39.04;102230.06;21082408;28;20089;-62
2023/01/11 17:28:44;;;;;;;7.50;6.57;;;;;;;17.56;39.11;102229.41;21088149;28;20043;-62
2023/01/11 17:38:46;;;;;;;7.82;6.15;;;;;;;17.55;38.74;102211.09;21086432;28;20048;-62
2023/01/11 17:48:58;;;;;;;7.30;6.07;;;;;;;17.52;38.86;102197.72;21086785;28;20039;-62
2023/01/11 17:59:48;;;;;;;7.10;5.90;;;;;;;17.47;39.31;102172.66;21086157;28;20095;-62
2023/01/11 18:09:56;;;;;;;6.30;5.57;;;;;;;17.54;39.05;102151.25;21084150;28;20036;-62
2023/01/11 18:19:58;;;;;;;;;;;;;;;17.56;39.01;102139.97;21084141;28;20097;-61
2023/01/11 18:30:05;;;;;;;7.32;5.93;;;;;;;17.56;38.69;102148.28;21083017;28;19912;-61
2023/01/11 18:40:14;;;;;;;6.03;5.20;;;;;;;17.52;38.72;102148.75;21082197;28;20066;-62
2023/01/11 18:50:18;;;;;;;11.37;5.80;;;;;;;17.58;39.07;102163.56;21048343;28;20472;-60
2023/01/11 19:00:19;;;;;;;15.07;5.63;;;;;;;17.58;39.11;102191.25;20995824;28;20052;-61
2023/01/11 19:10:22;;;;;;;38.92;7.15;;;;;;;17.58;39.09;102185.72;20995290;28;20037;-61
2023/01/11 19:20:23;;;;;;;158.70;15.20;;;;;;;17.57;39.67;102178.50;20993649;28;20048;-61
2023/01/11 19:30:28;;;;;;;71.93;10.75;;;;;;;17.56;39.16;102164.91;20993037;28;20041;-61
2023/01/11 19:40:32;;;;;;;124.78;14.00;;;;;;;17.66;39.38;102143.91;20992782;28;20074;-61
2023/01/11 19:50:33;;;;;;;112.82;13.27;;;;;;;17.73;39.20;102139.19;20991977;28;20049;-62
2023/01/11 20:00:35;;;;;;;143.05;15.68;;;;;;;17.77;39.24;102162.53;20991917;28;20127;-62
2023/01/11 20:10:42;;;;;;;101.07;14.10;;;;;;;17.85;39.36;102175.25;20990390;28;20040;-62
2023/01/11 20:20:43;;;;;;;111.82;13.05;;;;;;;17.93;39.36;102176.88;20990310;28;20045;-61
2023/01/11 20:30:44;;;;;;;78.35;12.00;;;;;;;17.99;39.41;102165.69;20989742;28;20049;-62
2023/01/11 20:40:46;;;;;;;67.60;10.65;;;;;;;18.06;39.50;102167.56;20989501;28;20029;-63
2023/01/11 20:50:47;;;;;;;51.05;11.13;;;;;;;17.99;39.30;102167.63;20995030;28;20044;-63
2023/01/11 21:00:51;;;;;;;48.03;7.95;;;;;;;18.19;39.42;102208.94;21005241;28;20040;-62
2023/01/11 21:10:58;;;;;;;47.50;7.72;;;;;;;18.22;39.26;102195.47;21003759;28;20805;-61
2023/01/11 21:21:00;;;;;;;32.78;6.70;;;;;;;18.04;38.93;102145.63;21002922;28;20044;-62
2023/01/11 21:31:03;;;;;;;33.75;6.30;;;;;;;18.33;39.12;102206.88;21002807;28;20403;-62
2023/01/11 21:41:07;;;;;;;34.08;7.07;;;;;;;18.39;38.74;102214.25;21001601;28;20051;-61
2023/01/11 21:51:08;;;;;;;25.95;6.40;;;;;;;18.41;38.91;102212.06;21000835;28;20040;-62
2023/01/11 22:01:13;;;;;;;16.60;5.30;;;;;;;18.33;38.94;102201.31;20997941;28;20051;-62
2023/01/11 22:11:16;;;;;;;35.70;6.20;;;;;;;18.42;39.13;102225.72;20998603;28;20094;-61
2023/01/11 22:21:26;;;;;;;18.88;5.63;;;;;;;18.33;39.33;102187.47;20997859;28;20040;-61
2023/01/11 22:31:32;;;;;;;22.58;6.25;;;;;;;18.49;39.07;102225.59;20997459;28;20098;-61
2023/01/11 22:41:33;;;;;;;30.08;6.03;;;;;;;18.50;38.81;102218.97;20996556;28;20055;-61
2023/01/11 22:51:35;;;;;;;19.50;5.55;;;;;;;18.50;39.10;102216.22;20995866;28;20098;-61
2023/01/11 23:01:39;;;;;;;17.35;5.15;;;;;;;18.48;39.01;102232.25;20995075;28;20483;-62
2023/01/11 23:22:00;;;;;;;;;;;;;;;18.53;38.98;102251.78;20993321;28;20037;-61
2023/01/11 23:32:01;;;;;;;22.95;5.82;;;;;;;18.53;39.18;102266.50;20993232;28;20283;-61
2023/01/11 23:52:25;;;;;;;21.08;5.20;;;;;;;18.21;39.18;102235.34;20993244;28;20049;-61
